Time;durP1;ratioP1;P1;durP2;ratioP2;P2;SDS_P1;SDS_P2;PMS_P1;PMS_P2;Temp;Humidity;BMP_temperature;BMP_pressure;BME280_temperature;BME280_humidity;BME280_pressure;Samples;Min_cycle;Max_cycle;Signal;HPM_P1;HPM_P2
2023/05/19 00:01:42;;;;;;;4.68;1.40;;;;;;;;;;5023835;28;20030;-65
2023/05/19 00:04:11;;;;;;;4.57;1.48;;;;;;;;;;5023977;28;20049;-68
2023/05/19 00:06:37;;;;;;;5.82;1.70;;;;;;;;;;5022563;28;20487;-63
2023/05/19 00:09:07;;;;;;;3.50;1.40;;;;;;;;;;5023241;28;20025;-64
2023/05/19 00:11:37;;;;;;;3.37;1.40;;;;;;;;;;5023177;28;20022;-67
2023/05/19 00:14:05;;;;;;;5.55;1.60;;;;;;;;;;5023093;28;20304;-68
2023/05/19 00:16:31;;;;;;;5.70;1.70;;;;;;;;;;5022315;28;20818;-66
2023/05/19 00:18:58;;;;;;;5.22;1.40;;;;;;;;;;5024045;28;20125;-69
2023/05/19 00:21:24;;;;;;;4.10;1.15;;;;;;;;;;5022275;28;20029;-69
2023/05/19 00:23:50;;;;;;;6.93;1.65;;;;;;;;;;5023799;28;20033;-69
2023/05/19 00:26:15;;;;;;;10.30;1.85;;;;;;;;;;5022079;28;20018;-68
2023/05/19 00:28:40;;;;;;;8.70;4.22;;;;;;;;;;5023442;28;20375;-68
2023/05/19 00:31:06;;;;;;;7.75;2.47;;;;;;;;;;5023289;28;20148;-68
2023/05/19 00:33:32;;;;;;;15.90;7.15;;;;;;;;;;5021871;28;20383;-67
2023/05/19 00:35:59;;;;;;;6.85;1.98;;;;;;;;;;5024517;28;20017;-66
2023/05/19 00:38:24;;;;;;;3.58;1.60;;;;;;;;;;5022218;28;20025;-68
2023/05/19 00:40:50;;;;;;;5.07;1.50;;;;;;;;;;5023671;28;20072;-67
2023/05/19 00:43:15;;;;;;;9.23;1.73;;;;;;;;;;5021342;28;20037;-65
2023/05/19 00:45:41;;;;;;;3.42;1.52;;;;;;;;;;5023120;28;20025;-64
2023/05/19 00:48:06;;;;;;;4.13;1.48;;;;;;;;;;5023176;28;20026;-64
2023/05/19 00:50:32;;;;;;;7.72;1.80;;;;;;;;;;5021642;28;20041;-63
2023/05/19 00:52:57;;;;;;;5.90;1.80;;;;;;;;;;5023327;28;20029;-66
2023/05/19 00:55:28;;;;;;;6.47;1.65;;;;;;;;;;5023773;28;20121;-66
2023/05/19 00:57:55;;;;;;;9.35;2.03;;;;;;;;;;5021549;28;20049;-63
2023/05/19 01:00:21;;;;;;;3.30;1.33;;;;;;;;;;5021974;28;20517;-63
2023/05/19 01:02:46;;;;;;;4.40;1.58;;;;;;;;;;5022914;28;20026;-63
2023/05/19 01:05:12;;;;;;;6.03;1.50;;;;;;;;;;5021220;28;20025;-67
2023/05/19 01:07:40;;;;;;;4.40;1.85;;;;;;;;;;5023055;28;20379;-68
2023/05/19 01:10:06;;;;;;;7.18;2.20;;;;;;;;;;5022696;28;20093;-63
2023/05/19 01:12:32;;;;;;;6.80;2.22;;;;;;;;;;5032665;28;20026;-62
2023/05/19 01:14:58;;;;;;;9.05;2.65;;;;;;;;;;5032717;28;20109;-62
2023/05/19 01:17:54;;;;;;;5.47;2.30;;;;;;;;;;5032537;28;20497;-62
2023/05/19 01:20:40;;;;;;;4.57;1.92;;;;;;;;;;5032456;28;20029;-64
2023/05/19 01:23:55;;;;;;;5.85;2.08;;;;;;;;;;5032323;28;20036;-65
2023/05/19 01:26:54;;;;;;;4.38;2.10;;;;;;;;;;5030699;28;20112;-63
2023/05/19 01:29:34;;;;;;;5.07;1.80;;;;;;;;;;5032430;28;20032;-63
2023/05/19 01:32:03;;;;;;;6.07;1.92;;;;;;;;;;5032456;28;20030;-63
2023/05/19 01:34:30;;;;;;;8.50;2.45;;;;;;;;;;5032451;28;20025;-66
2023/05/19 01:36:59;;;;;;;6.00;1.80;;;;;;;;;;5032052;28;20513;-70
2023/05/19 01:39:25;;;;;;;5.15;1.83;;;;;;;;;;5032284;28;20029;-68
2023/05/19 01:41:52;;;;;;;5.30;2.03;;;;;;;;;;5032345;28;20364;-64
2023/05/19 01:44:18;;;;;;;4.05;1.63;;;;;;;;;;5032095;28;20049;-66
2023/05/19 01:46:44;;;;;;;4.97;1.80;;;;;;;;;;5032325;28;20026;-67
2023/05/19 01:49:10;;;;;;;7.22;1.70;;;;;;;;;;5032315;28;20133;-68
2023/05/19 01:51:35;;;;;;;7.97;1.90;;;;;;;;;;5032071;28;20111;-63
2023/05/19 01:54:01;;;;;;;6.88;2.10;;;;;;;;;;5032044;28;20025;-64
2023/05/19 01:56:48;;;;;;;7.70;2.10;;;;;;;;;;5032301;28;20057;-63
2023/05/19 01:59:58;;;;;;;4.05;1.75;;;;;;;;;;5032096;28;20168;-63
2023/05/19 02:02:52;;;;;;;3.13;1.50;;;;;;;;;;5010199;28;20037;-62
2023/05/19 02:05:28;;;;;;;8.15;1.75;;;;;;;;;;5009867;28;20030;-64
2023/05/19 02:08:03;;;;;;;3.42;1.40;;;;;;;;;;5010135;28;20044;-62
2023/05/19 02:10:31;;;;;;;7.28;2.20;;;;;;;;;;5010437;28;20026;-67
2023/05/19 02:13:03;;;;;;;2.35;1.35;;;;;;;;;;5013268;28;20034;-62
2023/05/19 02:15:37;;;;;;;2.88;1.38;;;;;;;;;;5014214;28;20034;-63
2023/05/19 02:18:03;;;;;;;3.13;1.40;;;;;;;;;;5014012;28;20030;-63
2023/05/19 02:20:29;;;;;;;4.70;1.27;;;;;;;;;;5013813;28;20096;-63
2023/05/19 02:22:55;;;;;;;3.50;1.55;;;;;;;;;;4998536;28;20057;-63
2023/05/19 02:25:22;;;;;;;2.97;1.40;;;;;;;;;;4994109;28;20523;-66
2023/05/19 02:27:47;;;;;;;5.15;1.70;;;;;;;;;;4994146;28;20444;-65
2023/05/19 02:30:13;;;;;;;2.88;1.30;;;;;;;;;;4994216;28;20197;-63
2023/05/19 02:32:39;;;;;;;5.93;1.10;;;;;;;;;;4994070;28;20039;-62
2023/05/19 02:35:05;;;;;;;4.28;1.20;;;;;;;;;;5000064;28;20033;-63
2023/05/19 02:37:31;;;;;;;3.95;1.40;;;;;;;;;;5013391;28;20037;-65
2023/05/19 02:39:57;;;;;;;4.45;1.80;;;;;;;;;;5034214;28;20557;-64
2023/05/19 02:42:22;;;;;;;3.97;1.38;;;;;;;;;;5035359;28;20057;-66
2023/05/19 02:44:48;;;;;;;5.40;1.48;;;;;;;;;;5035143;28;20051;-63
2023/05/19 02:47:13;;;;;;;4.63;1.50;;;;;;;;;;5035062;28;20383;-64
2023/05/19 02:49:39;;;;;;;6.57;1.40;;;;;;;;;;5035225;28;20025;-63
2023/05/19 02:52:05;;;;;;;3.90;1.50;;;;;;;;;;5035138;28;20030;-66
2023/05/19 02:54:32;;;;;;;5.00;1.48;;;;;;;;;;5035081;28;20100;-63
2023/05/19 02:56:58;;;;;;;5.68;1.60;;;;;;;;;;5035213;28;20029;-65
2023/05/19 02:59:24;;;;;;;8.95;1.67;;;;;;;;;;5034927;28;20060;-62
2023/05/19 03:01:51;;;;;;;33.03;18.05;;;;;;;;;;5034851;28;20034;-65
2023/05/19 03:04:18;;;;;;;5.28;1.98;;;;;;;;;;5034950;28;20084;-65
2023/05/19 03:06:45;;;;;;;5.70;1.60;;;;;;;;;;5034964;28;20032;-64
2023/05/19 03:09:12;;;;;;;6.80;2.15;;;;;;;;;;5034898;28;20112;-68
2023/05/19 03:11:38;;;;;;;8.10;1.90;;;;;;;;;;5034816;28;20037;-69
2023/05/19 03:14:03;;;;;;;3.42;1.60;;;;;;;;;;5034812;28;20034;-68
2023/05/19 03:16:29;;;;;;;4.85;1.80;;;;;;;;;;5034648;28;20026;-68
2023/05/19 03:18:54;;;;;;;3.50;1.52;;;;;;;;;;5034852;28;20113;-67
2023/05/19 03:21:20;;;;;;;4.65;1.90;;;;;;;;;;5034488;28;20040;-69
2023/05/19 03:23:46;;;;;;;3.47;1.70;;;;;;;;;;5033576;28;20112;-69
2023/05/19 03:26:11;;;;;;;7.05;1.70;;;;;;;;;;5034556;28;20379;-67
2023/05/19 03:28:37;;;;;;;2.78;1.50;;;;;;;;;;5034475;28;20029;-69
2023/05/19 03:31:02;;;;;;;4.75;1.50;;;;;;;;;;5034054;28;20116;-68
2023/05/19 03:33:28;;;;;;;4.28;1.77;;;;;;;;;;5034311;28;20030;-68
2023/05/19 03:35:55;;;;;;;5.60;1.90;;;;;;;;;;5034393;28;20018;-68
2023/05/19 03:38:21;;;;;;;2.90;1.42;;;;;;;;;;5034262;28;20065;-63
2023/05/19 03:40:46;;;;;;;3.53;1.40;;;;;;;;;;5034301;28;20056;-67
2023/05/19 03:43:12;;;;;;;2.33;1.30;;;;;;;;;;5033991;28;20142;-64
2023/05/19 03:45:37;;;;;;;4.90;1.40;;;;;;;;;;5034174;28;20030;-68
2023/05/19 03:48:03;;;;;;;3.17;1.50;;;;;;;;;;5034230;28;20030;-68
2023/05/19 03:50:30;;;;;;;7.65;1.85;;;;;;;;;;5034089;28;20109;-68
2023/05/19 03:52:56;;;;;;;2.58;1.40;;;;;;;;;;5034109;28;20084;-68
2023/05/19 03:55:21;;;;;;;3.53;1.33;;;;;;;;;;5033737;28;20425;-68
2023/05/19 03:57:47;;;;;;;4.70;1.85;;;;;;;;;;5033975;28;20021;-69
2023/05/19 04:00:13;;;;;;;4.85;1.50;;;;;;;;;;5033801;28;20017;-68
2023/05/19 04:02:39;;;;;;;5.45;1.30;;;;;;;;;;5034022;28;20017;-69
2023/05/19 04:05:06;;;;;;;6.28;1.50;;;;;;;;;;5033601;28;20179;-69
2023/05/19 04:07:31;;;;;;;5.35;1.48;;;;;;;;;;5033854;28;20509;-66
2023/05/19 04:09:57;;;;;;;3.65;1.52;;;;;;;;;;5033553;28;20061;-69
2023/05/19 04:12:22;;;;;;;2.95;1.33;;;;;;;;;;5033661;28;20033;-68
2023/05/19 04:14:48;;;;;;;2.67;1.40;;;;;;;;;;5033326;28;20021;-63
2023/05/19 04:17:13;;;;;;;2.15;1.30;;;;;;;;;;5033614;28;20029;-64
2023/05/19 04:19:39;;;;;;;5.78;1.67;;;;;;;;;;5033636;28;20017;-63
2023/05/19 04:22:04;;;;;;;2.40;1.30;;;;;;;;;;5033418;28;20364;-68
2023/05/19 04:24:30;;;;;;;5.30;1.30;;;;;;;;;;5033520;28;20052;-63
2023/05/19 04:26:56;;;;;;;4.55;1.52;;;;;;;;;;5033468;28;20033;-67
2023/05/19 04:29:22;;;;;;;6.82;1.30;;;;;;;;;;5033050;28;20025;-67
2023/05/19 04:31:48;;;;;;;4.68;1.65;;;;;;;;;;5033278;28;20049;-69
2023/05/19 04:34:13;;;;;;;3.72;1.60;;;;;;;;;;5033275;28;20025;-65
2023/05/19 04:36:39;;;;;;;3.28;1.38;;;;;;;;;;5033198;28;20025;-64
2023/05/19 04:39:08;;;;;;;5.35;1.15;;;;;;;;;;5032805;28;20032;-65
2023/05/19 04:41:33;;;;;;;2.97;1.30;;;;;;;;;;5032078;28;20424;-69
2023/05/19 04:43:59;;;;;;;2.70;1.40;;;;;;;;;;5032720;28;20045;-67
2023/05/19 04:46:25;;;;;;;4.43;1.30;;;;;;;;;;5033068;28;20387;-69
2023/05/19 04:48:52;;;;;;;3.67;1.45;;;;;;;;;;5033194;28;20029;-68
2023/05/19 04:51:18;;;;;;;3.28;1.48;;;;;;;;;;5032985;28;20469;-65
2023/05/19 04:53:44;;;;;;;3.35;1.20;;;;;;;;;;5032785;28;20125;-66
2023/05/19 04:56:13;;;;;;;3.17;1.27;;;;;;;;;;5031903;28;20113;-64
2023/05/19 04:58:40;;;;;;;3.85;1.10;;;;;;;;;;5032854;28;20078;-63
2023/05/19 05:01:06;;;;;;;4.78;1.30;;;;;;;;;;5032637;28;20022;-67
2023/05/19 05:03:33;;;;;;;6.05;1.50;;;;;;;;;;5032797;28;20135;-63
2023/05/19 05:05:58;;;;;;;5.22;1.38;;;;;;;;;;5032796;28;20026;-64
2023/05/19 05:08:24;;;;;;;3.83;1.40;;;;;;;;;;5032610;28;20025;-68
2023/05/19 05:10:51;;;;;;;3.83;1.58;;;;;;;;;;5032878;28;20029;-64
2023/05/19 05:13:17;;;;;;;5.57;1.40;;;;;;;;;;5032246;28;20386;-64
2023/05/19 05:15:43;;;;;;;2.78;1.20;;;;;;;;;;5032699;28;20478;-63
2023/05/19 05:18:09;;;;;;;6.82;1.13;;;;;;;;;;5032438;28;20040;-63
2023/05/19 05:20:35;;;;;;;4.32;1.15;;;;;;;;;;5032596;28;20374;-62
2023/05/19 05:23:01;;;;;;;3.30;1.40;;;;;;;;;;5031933;28;20427;-67
2023/05/19 05:25:26;;;;;;;5.60;1.70;;;;;;;;;;5032537;28;20066;-63
2023/05/19 05:27:52;;;;;;;2.90;1.30;;;;;;;;;;5032280;28;20029;-62
2023/05/19 05:30:17;;;;;;;5.63;1.10;;;;;;;;;;5032398;28;20175;-64
2023/05/19 05:32:44;;;;;;;2.90;1.33;;;;;;;;;;5032259;28;20566;-64
2023/05/19 05:35:09;;;;;;;4.22;1.38;;;;;;;;;;5032060;28;20028;-64
2023/05/19 05:37:35;;;;;;;3.13;1.15;;;;;;;;;;5032099;28;20112;-64
2023/05/19 05:40:00;;;;;;;4.18;1.25;;;;;;;;;;5032355;28;20029;-64
2023/05/19 05:42:25;;;;;;;5.40;1.10;;;;;;;;;;5032081;28;20485;-64
2023/05/19 05:44:51;;;;;;;8.60;1.40;;;;;;;;;;5031952;28;20053;-62
2023/05/19 05:47:16;;;;;;;3.80;1.20;;;;;;;;;;5034414;28;20076;-64
2023/05/19 05:49:42;;;;;;;4.90;0.93;;;;;;;;;;5036034;28;20033;-64
2023/05/19 05:52:11;;;;;;;3.75;1.30;;;;;;;;;;5036365;28;20037;-62
2023/05/19 05:54:36;;;;;;;5.40;1.33;;;;;;;;;;5036180;28;20056;-62
2023/05/19 05:57:02;;;;;;;5.13;1.50;;;;;;;;;;5035982;28;20053;-63
2023/05/19 05:59:28;;;;;;;4.45;1.50;;;;;;;;;;5036297;28;20026;-66
2023/05/19 06:01:53;;;;;;;3.40;1.27;;;;;;;;;;5036212;28;20431;-61
2023/05/19 06:04:19;;;;;;;3.22;1.13;;;;;;;;;;5036096;28;20067;-64
2023/05/19 06:06:45;;;;;;;7.20;1.50;;;;;;;;;;5036105;28;20029;-63
2023/05/19 06:09:11;;;;;;;6.35;1.88;;;;;;;;;;5035586;28;20025;-62
2023/05/19 06:11:36;;;;;;;3.25;1.23;;;;;;;;;;5035790;28;20028;-63
2023/05/19 06:14:02;;;;;;;7.15;1.85;;;;;;;;;;5035907;28;20038;-62
2023/05/19 06:16:27;;;;;;;4.88;1.58;;;;;;;;;;5036039;28;20025;-62
2023/05/19 06:18:53;;;;;;;6.20;1.65;;;;;;;;;;5035885;28;20029;-62
2023/05/19 06:21:18;;;;;;;3.20;1.40;;;;;;;;;;5035646;28;20471;-62
2023/05/19 06:23:44;;;;;;;6.32;1.48;;;;;;;;;;5035858;28;20119;-62
2023/05/19 06:26:09;;;;;;;4.50;1.58;;;;;;;;;;5035512;28;20075;-69
2023/05/19 06:28:35;;;;;;;4.20;1.27;;;;;;;;;;5035575;28;20036;-69
2023/05/19 06:31:00;;;;;;;6.07;1.63;;;;;;;;;;5035565;28;20025;-68
2023/05/19 06:33:26;;;;;;;6.70;1.40;;;;;;;;;;5035644;28;20113;-68
2023/05/19 06:35:51;;;;;;;4.75;1.50;;;;;;;;;;5035269;28;20029;-68
2023/05/19 06:38:17;;;;;;;3.20;1.27;;;;;;;;;;5033982;28;20065;-63
2023/05/19 06:40:42;;;;;;;4.03;1.45;;;;;;;;;;5035261;28;20029;-67
2023/05/19 06:43:08;;;;;;;5.30;1.58;;;;;;;;;;5035197;28;20104;-69
2023/05/19 06:45:34;;;;;;;6.50;1.70;;;;;;;;;;5035265;28;20075;-69
2023/05/19 06:48:00;;;;;;;3.67;1.70;;;;;;;;;;5035392;28;20034;-69
2023/05/19 06:50:25;;;;;;;8.77;1.75;;;;;;;;;;5035396;28;20022;-68
2023/05/19 06:52:51;;;;;;;3.72;1.50;;;;;;;;;;5035232;28;20030;-69
2023/05/19 06:55:16;;;;;;;8.07;1.48;;;;;;;;;;5034732;28;20336;-64
2023/05/19 06:57:42;;;;;;;6.38;1.55;;;;;;;;;;5032621;28;20033;-67
2023/05/19 07:00:10;;;;;;;5.13;1.25;;;;;;;;;;5026815;28;20022;-66
2023/05/19 07:02:36;;;;;;;2.35;1.35;;;;;;;;;;5028202;28;20071;-69
2023/05/19 07:05:02;;;;;;;3.72;1.50;;;;;;;;;;5034645;28;20053;-68
2023/05/19 07:07:27;;;;;;;5.40;1.85;;;;;;;;;;5034809;28;20427;-68
2023/05/19 07:09:53;;;;;;;5.30;1.60;;;;;;;;;;5040613;28;20021;-65
2023/05/19 07:12:18;;;;;;;5.15;1.40;;;;;;;;;;5054550;28;20036;-64
2023/05/19 07:14:44;;;;;;;7.75;1.38;;;;;;;;;;5054443;28;20056;-66
2023/05/19 07:17:09;;;;;;;4.32;1.48;;;;;;;;;;5054529;28;20081;-69
2023/05/19 07:19:35;;;;;;;4.55;1.85;;;;;;;;;;5054279;28;20082;-63
2023/05/19 07:22:00;;;;;;;8.00;1.80;;;;;;;;;;5046593;28;20026;-65
2023/05/19 07:24:26;;;;;;;4.00;1.92;;;;;;;;;;5034182;28;20033;-67
2023/05/19 07:26:52;;;;;;;6.93;1.98;;;;;;;;;;5034280;28;20024;-69
2023/05/19 07:29:17;;;;;;;6.00;2.10;;;;;;;;;;5034382;28;20068;-70
2023/05/19 07:31:43;;;;;;;6.95;1.90;;;;;;;;;;5034431;28;20033;-68
2023/05/19 07:34:08;;;;;;;6.13;1.75;;;;;;;;;;5034404;28;20033;-68
2023/05/19 07:36:34;;;;;;;7.13;1.85;;;;;;;;;;5034369;28;20454;-69
2023/05/19 07:38:59;;;;;;;5.78;1.70;;;;;;;;;;5034133;28;20093;-63
2023/05/19 07:41:25;;;;;;;7.13;2.00;;;;;;;;;;5034357;28;20068;-63
2023/05/19 07:43:50;;;;;;;6.25;1.88;;;;;;;;;;5033899;28;20134;-66
2023/05/19 07:46:16;;;;;;;4.82;1.60;;;;;;;;;;5033744;28;20463;-67
2023/05/19 07:48:41;;;;;;;5.18;1.40;;;;;;;;;;5033910;28;20033;-63
2023/05/19 07:51:09;;;;;;;9.43;1.80;;;;;;;;;;5034071;28;20073;-62
2023/05/19 07:53:35;;;;;;;3.65;1.73;;;;;;;;;;5033874;28;20466;-63
2023/05/19 07:56:01;;;;;;;5.78;1.63;;;;;;;;;;5045925;28;20112;-61
2023/05/19 07:58:27;;;;;;;4.97;1.77;;;;;;;;;;5052699;28;20029;-66
2023/05/19 08:00:55;;;;;;;6.05;1.60;;;;;;;;;;5053512;28;20025;-70
2023/05/19 08:03:22;;;;;;;8.95;1.73;;;;;;;;;;5053703;28;20112;-69
2023/05/19 08:05:47;;;;;;;10.32;1.90;;;;;;;;;;5053186;28;20044;-67
2023/05/19 08:08:15;;;;;;;5.90;2.00;;;;;;;;;;5053282;28;20074;-67
2023/05/19 08:10:41;;;;;;;4.15;1.48;;;;;;;;;;5053095;28;20029;-72
2023/05/19 08:13:06;;;;;;;5.30;2.08;;;;;;;;;;5052147;28;20036;-66
2023/05/19 08:15:44;;;;;;;6.50;1.73;;;;;;;;;;5053498;28;20029;-65
2023/05/19 08:18:10;;;;;;;4.43;1.20;;;;;;;;;;5053571;28;20028;-69
2023/05/19 08:20:36;;;;;;;5.93;1.40;;;;;;;;;;5053219;28;20029;-62
2023/05/19 08:23:02;;;;;;;2.90;1.40;;;;;;;;;;5036686;28;20037;-62
2023/05/19 08:25:27;;;;;;;3.30;1.58;;;;;;;;;;5033444;28;20029;-62
2023/05/19 08:27:53;;;;;;;4.13;1.50;;;;;;;;;;5033378;28;20025;-66
2023/05/19 08:30:18;;;;;;;4.78;1.25;;;;;;;;;;5033139;28;20498;-62
2023/05/19 08:32:44;;;;;;;4.00;1.50;;;;;;;;;;5033329;28;20029;-61
2023/05/19 08:35:10;;;;;;;4.10;1.25;;;;;;;;;;5033132;28;20087;-67
2023/05/19 08:37:37;;;;;;;7.68;1.40;;;;;;;;;;5032559;28;20463;-62
2023/05/19 08:40:04;;;;;;;4.72;1.00;;;;;;;;;;5033403;28;20168;-62
2023/05/19 08:42:31;;;;;;;4.03;1.55;;;;;;;;;;5032926;28;20534;-67
2023/05/19 08:44:57;;;;;;;3.22;1.17;;;;;;;;;;5032937;28;20107;-70
2023/05/19 08:47:24;;;;;;;7.43;1.52;;;;;;;;;;5032907;28;20045;-70
2023/05/19 08:49:52;;;;;;;3.60;1.30;;;;;;;;;;5032657;28;20107;-68
2023/05/19 08:52:34;;;;;;;6.80;1.90;;;;;;;;;;5033057;28;20537;-66
2023/05/19 08:55:04;;;;;;;2.53;1.25;;;;;;;;;;5034325;28;20049;-70
2023/05/19 08:57:31;;;;;;;4.20;1.10;;;;;;;;;;5052059;28;20033;-66
2023/05/19 08:59:58;;;;;;;3.67;1.15;;;;;;;;;;5051592;28;20108;-69
2023/05/19 09:02:23;;;;;;;4.60;1.05;;;;;;;;;;5032755;28;20044;-63
2023/05/19 09:04:49;;;;;;;3.90;1.17;;;;;;;;;;5032446;28;20029;-63
2023/05/19 09:07:15;;;;;;;3.83;1.17;;;;;;;;;;5032529;28;20493;-65
2023/05/19 09:09:42;;;;;;;3.00;0.90;;;;;;;;;;5032563;28;20399;-63
2023/05/19 09:12:10;;;;;;;1.80;1.10;;;;;;;;;;5032846;28;20026;-66
2023/05/19 09:14:36;;;;;;;4.40;1.23;;;;;;;;;;5032499;28;20510;-63
2023/05/19 09:17:02;;;;;;;2.58;1.10;;;;;;;;;;5032762;28;20038;-62
2023/05/19 09:19:28;;;;;;;2.70;1.10;;;;;;;;;;5032442;28;20087;-71
2023/05/19 09:22:04;;;;;;;1.55;0.90;;;;;;;;;;5031309;28;20101;-69
2023/05/19 09:24:30;;;;;;;3.25;1.20;;;;;;;;;;5032294;28;20520;-65
2023/05/19 09:26:56;;;;;;;4.72;1.10;;;;;;;;;;5032320;28;20048;-65
2023/05/19 09:29:21;;;;;;;2.38;1.02;;;;;;;;;;5032479;28;20474;-63
2023/05/19 09:31:54;;;;;;;5.95;1.10;;;;;;;;;;5032473;28;20398;-62
2023/05/19 09:34:22;;;;;;;2.33;0.93;;;;;;;;;;5032110;28;20517;-62
2023/05/19 09:36:48;;;;;;;2.42;0.98;;;;;;;;;;5032228;28;20030;-62
2023/05/19 09:39:18;;;;;;;3.20;1.20;;;;;;;;;;5032204;28;20040;-63
2023/05/19 09:41:44;;;;;;;;;;;;;;;;;;5032750;28;20033;-69
2023/05/19 09:44:21;;;;;;;2.35;1.20;;;;;;;;;;5032139;28;19917;-65
2023/05/19 09:46:50;;;;;;;5.07;1.50;;;;;;;;;;5032326;28;20468;-70
2023/05/19 09:49:33;;;;;;;3.70;1.27;;;;;;;;;;5031769;28;20148;-68
2023/05/19 09:52:02;;;;;;;2.30;0.90;;;;;;;;;;5032415;28;20105;-71
2023/05/19 09:54:30;;;;;;;2.17;0.98;;;;;;;;;;5030743;28;20030;-70
2023/05/19 09:57:01;;;;;;;4.88;1.10;;;;;;;;;;5046337;28;20103;-71
2023/05/19 09:59:27;;;;;;;;;;;;;;;;;;5051070;28;20025;-70
2023/05/19 10:01:57;;;;;;;5.43;1.00;;;;;;;;;;5067079;28;19925;-70
2023/05/19 10:04:27;;;;;;;2.25;1.00;;;;;;;;;;5051712;28;20067;-70
2023/05/19 10:06:58;;;;;;;7.30;1.00;;;;;;;;;;5051939;28;20090;-65
2023/05/19 10:09:28;;;;;;;3.42;1.00;;;;;;;;;;5052338;28;20033;-64
2023/05/19 10:11:56;;;;;;;6.57;1.88;;;;;;;;;;5051369;28;20036;-70
2023/05/19 10:14:26;;;;;;;4.70;1.30;;;;;;;;;;5051784;28;20073;-70
2023/05/19 10:16:53;;;;;;;4.05;1.00;;;;;;;;;;5051688;28;20389;-70
2023/05/19 10:19:38;;;;;;;1.10;0.80;;;;;;;;;;5051861;28;20426;-66
2023/05/19 10:22:04;;;;;;;2.30;0.95;;;;;;;;;;5043244;28;20025;-69
2023/05/19 10:24:30;;;;;;;1.60;0.93;;;;;;;;;;5031918;28;20454;-69
2023/05/19 10:27:00;;;;;;;2.90;0.90;;;;;;;;;;5031984;28;20037;-65
2023/05/19 10:29:29;;;;;;;2.95;0.82;;;;;;;;;;5032022;28;20029;-71
2023/05/19 10:31:57;;;;;;;3.10;1.00;;;;;;;;;;5031841;28;20112;-69
2023/05/19 10:35:00;;;;;;;1.95;1.10;;;;;;;;;;5035119;28;20033;-63
2023/05/19 10:37:44;;;;;;;5.50;1.20;;;;;;;;;;5035346;28;20454;-66
2023/05/19 10:40:35;;;;;;;1.55;1.00;;;;;;;;;;5035457;28;20033;-66
2023/05/19 10:43:19;;;;;;;5.43;0.90;;;;;;;;;;5015607;28;20034;-66
2023/05/19 10:45:51;;;;;;;3.95;1.08;;;;;;;;;;5017229;28;20050;-66
2023/05/19 10:48:19;;;;;;;4.93;1.20;;;;;;;;;;5035149;28;20083;-66
2023/05/19 10:50:45;;;;;;;3.95;1.05;;;;;;;;;;5035416;28;20120;-69
2023/05/19 10:53:17;;;;;;;2.50;0.95;;;;;;;;;;5034928;28;20053;-62
2023/05/19 10:55:48;;;;;;;2.03;0.80;;;;;;;;;;5036737;28;20035;-61
2023/05/19 10:58:13;;;;;;;2.75;1.00;;;;;;;;;;5055060;28;20021;-62
2023/05/19 11:00:40;;;;;;;2.05;0.80;;;;;;;;;;5048241;28;20446;-63
2023/05/19 11:03:17;;;;;;;2.67;1.00;;;;;;;;;;5037271;28;20083;-62
2023/05/19 11:05:48;;;;;;;3.45;1.23;;;;;;;;;;5041048;28;20025;-62
2023/05/19 11:08:14;;;;;;;5.78;1.52;;;;;;;;;;5048189;28;20018;-64
2023/05/19 11:10:43;;;;;;;4.80;1.20;;;;;;;;;;5034963;28;20439;-62
2023/05/19 11:13:18;;;;;;;4.63;1.40;;;;;;;;;;5047475;28;20083;-61
2023/05/19 11:15:44;;;;;;;5.80;2.03;;;;;;;;;;5034907;28;20030;-63
2023/05/19 11:18:14;;;;;;;2.85;0.80;;;;;;;;;;5032284;28;21071;-63
2023/05/19 11:20:40;;;;;;;5.47;1.00;;;;;;;;;;5036647;28;20052;-63
2023/05/19 11:23:13;;;;;;;2.97;0.98;;;;;;;;;;5041964;28;20071;-62
2023/05/19 11:25:50;;;;;;;3.33;0.90;;;;;;;;;;5048027;28;20068;-62
2023/05/19 11:28:24;;;;;;;2.45;0.90;;;;;;;;;;5014830;28;20026;-63
2023/05/19 11:30:52;;;;;;;3.22;0.98;;;;;;;;;;5051141;28;20033;-70
2023/05/19 11:33:19;;;;;;;2.58;1.17;;;;;;;;;;5054361;28;20491;-63
2023/05/19 11:35:46;;;;;;;3.70;1.00;;;;;;;;;;5054344;28;20028;-63
2023/05/19 11:38:13;;;;;;;1.92;0.95;;;;;;;;;;5034367;28;20485;-63
2023/05/19 11:40:41;;;;;;;2.83;0.90;;;;;;;;;;5034442;28;20041;-62
2023/05/19 11:43:06;;;;;;;1.38;0.88;;;;;;;;;;5032888;28;20053;-64
2023/05/19 11:45:32;;;;;;;2.22;0.85;;;;;;;;;;5033141;28;20064;-65
2023/05/19 11:47:58;;;;;;;2.67;0.90;;;;;;;;;;5033998;28;20037;-62
2023/05/19 11:50:24;;;;;;;4.13;0.75;;;;;;;;;;5034176;28;20021;-63
2023/05/19 11:52:51;;;;;;;2.10;0.80;;;;;;;;;;5034131;28;20151;-63
2023/05/19 11:55:24;;;;;;;11.70;1.38;;;;;;;;;;5042720;28;20023;-67
2023/05/19 11:58:02;;;;;;;3.78;0.85;;;;;;;;;;5053995;28;20025;-64
2023/05/19 12:00:29;;;;;;;4.65;0.80;;;;;;;;;;5053871;28;20044;-62
2023/05/19 12:02:56;;;;;;;2.65;0.90;;;;;;;;;;5053961;28;20036;-63
2023/05/19 12:05:25;;;;;;;3.33;0.93;;;;;;;;;;5053774;28;20029;-62
2023/05/19 12:07:51;;;;;;;2.00;0.90;;;;;;;;;;5044674;28;20462;-62
2023/05/19 12:10:24;;;;;;;1.77;0.75;;;;;;;;;;5025152;28;20028;-62
2023/05/19 12:12:50;;;;;;;7.93;1.00;;;;;;;;;;5033272;28;20493;-64
2023/05/19 12:15:22;;;;;;;3.60;0.85;;;;;;;;;;5033613;28;20044;-64
2023/05/19 12:17:58;;;;;;;3.10;1.15;;;;;;;;;;5013810;28;20042;-67
2023/05/19 12:20:27;;;;;;;5.00;1.58;;;;;;;;;;5013608;28;20022;-62
2023/05/19 12:22:57;;;;;;;3.63;0.90;;;;;;;;;;5025780;28;20036;-63
2023/05/19 12:25:23;;;;;;;5.60;0.93;;;;;;;;;;5031523;28;20131;-62
2023/05/19 12:27:51;;;;;;;1.92;0.77;;;;;;;;;;5032934;28;20049;-63
2023/05/19 12:30:17;;;;;;;1.40;0.75;;;;;;;;;;5032965;28;20031;-63
2023/05/19 12:32:42;;;;;;;2.28;0.77;;;;;;;;;;5034495;28;20418;-64
2023/05/19 12:35:08;;;;;;;1.98;0.88;;;;;;;;;;5034756;28;20055;-66
2023/05/19 12:37:35;;;;;;;1.80;0.85;;;;;;;;;;5041732;28;20021;-63
2023/05/19 12:40:02;;;;;;;7.50;0.85;;;;;;;;;;5033236;28;20041;-63
2023/05/19 12:42:34;;;;;;;3.03;0.82;;;;;;;;;;5052419;28;20471;-63
2023/05/19 12:45:01;;;;;;;1.35;0.60;;;;;;;;;;5035117;28;20481;-64
2023/05/19 12:47:34;;;;;;;1.58;0.80;;;;;;;;;;5033017;28;20026;-64
2023/05/19 12:50:02;;;;;;;2.88;0.90;;;;;;;;;;5043193;28;20083;-64
2023/05/19 12:52:30;;;;;;;1.33;0.70;;;;;;;;;;5051163;28;20478;-67
2023/05/19 12:55:06;;;;;;;2.78;0.77;;;;;;;;;;5049761;28;20037;-63
2023/05/19 12:57:36;;;;;;;1.80;1.10;;;;;;;;;;5032871;28;20033;-63
2023/05/19 13:00:09;;;;;;;0.98;0.73;;;;;;;;;;5033013;28;20033;-65
2023/05/19 13:02:53;;;;;;;2.03;0.95;;;;;;;;;;5032133;28;20119;-65
2023/05/19 13:05:20;;;;;;;1.23;0.77;;;;;;;;;;5032532;28;20029;-64
2023/05/19 13:08:06;;;;;;;2.33;0.98;;;;;;;;;;5049673;28;20116;-64
2023/05/19 13:10:32;;;;;;;1.48;0.85;;;;;;;;;;5044415;28;20375;-63
2023/05/19 13:12:59;;;;;;;1.48;0.80;;;;;;;;;;5032267;28;20090;-65
2023/05/19 13:15:26;;;;;;;2.00;0.90;;;;;;;;;;5032486;28;20033;-64
2023/05/19 13:17:53;;;;;;;4.47;2.08;;;;;;;;;;5032144;28;20405;-64
2023/05/19 13:20:20;;;;;;;3.13;0.90;;;;;;;;;;5032329;28;20479;-64
2023/05/19 13:22:46;;;;;;;4.80;1.30;;;;;;;;;;5032324;28;20044;-64
2023/05/19 13:25:12;;;;;;;2.55;0.90;;;;;;;;;;5032565;28;20033;-63
2023/05/19 13:27:39;;;;;;;3.22;0.90;;;;;;;;;;5032478;28;20021;-65
2023/05/19 13:30:05;;;;;;;3.33;0.90;;;;;;;;;;5032496;28;20029;-68
2023/05/19 13:32:31;;;;;;;4.97;1.08;;;;;;;;;;5031967;28;20029;-64
2023/05/19 13:34:57;;;;;;;3.63;1.10;;;;;;;;;;5032214;28;20025;-65
2023/05/19 13:37:23;;;;;;;1.52;1.00;;;;;;;;;;5026731;28;20112;-68
2023/05/19 13:39:48;;;;;;;5.30;1.00;;;;;;;;;;5032004;28;20453;-63
2023/05/19 13:42:15;;;;;;;1.10;0.75;;;;;;;;;;5012355;28;20022;-63
2023/05/19 13:44:40;;;;;;;2.05;0.82;;;;;;;;;;5012090;28;20045;-65
2023/05/19 13:47:05;;;;;;;2.80;1.13;;;;;;;;;;5011301;28;20391;-71
2023/05/19 13:49:31;;;;;;;5.95;0.98;;;;;;;;;;5012674;28;20499;-73
2023/05/19 13:52:00;;;;;;;2.92;0.90;;;;;;;;;;5012408;28;20034;-69
2023/05/19 13:54:25;;;;;;;1.75;0.80;;;;;;;;;;5012160;28;20054;-68
2023/05/19 13:56:51;;;;;;;1.92;0.80;;;;;;;;;;5011880;28;20057;-71
2023/05/19 13:59:16;;;;;;;1.27;0.77;;;;;;;;;;5012325;28;20025;-70
2023/05/19 14:01:45;;;;;;;2.22;0.90;;;;;;;;;;5012558;28;20055;-63
2023/05/19 14:04:11;;;;;;;4.55;1.08;;;;;;;;;;5012515;28;20034;-63
2023/05/19 14:06:37;;;;;;;2.38;1.00;;;;;;;;;;5012563;28;20088;-70
2023/05/19 14:09:03;;;;;;;1.30;0.80;;;;;;;;;;5014335;28;20436;-63
2023/05/19 14:11:28;;;;;;;7.32;1.20;;;;;;;;;;5033878;28;20034;-64
2023/05/19 14:13:54;;;;;;;3.20;1.00;;;;;;;;;;5035458;28;20025;-65
2023/05/19 14:16:21;;;;;;;5.80;3.30;;;;;;;;;;5035603;28;20092;-68
2023/05/19 14:18:47;;;;;;;7.80;2.13;;;;;;;;;;5036026;28;20029;-70
2023/05/19 14:21:12;;;;;;;5.32;1.50;;;;;;;;;;5035943;28;20025;-68
2023/05/19 14:23:38;;;;;;;5.28;1.15;;;;;;;;;;5035575;28;20360;-67
2023/05/19 14:26:03;;;;;;;4.90;0.93;;;;;;;;;;5035590;28;20065;-63
2023/05/19 14:28:29;;;;;;;2.08;0.90;;;;;;;;;;5035200;28;20108;-62
2023/05/19 14:30:54;;;;;;;7.18;1.23;;;;;;;;;;5035367;28;20033;-62
2023/05/19 14:33:20;;;;;;;1.90;0.80;;;;;;;;;;5035045;28;20044;-70
2023/05/19 14:35:45;;;;;;;2.55;0.85;;;;;;;;;;5034929;28;20035;-62
2023/05/19 14:38:12;;;;;;;4.72;1.10;;;;;;;;;;5034914;28;20040;-63
2023/05/19 14:40:40;;;;;;;2.10;0.80;;;;;;;;;;5041820;28;20425;-71
2023/05/19 14:43:08;;;;;;;1.70;0.95;;;;;;;;;;5054877;28;20103;-71
2023/05/19 14:45:34;;;;;;;1.77;1.00;;;;;;;;;;5053987;28;20386;-65
2023/05/19 14:48:00;;;;;;;4.55;0.90;;;;;;;;;;5053760;28;20036;-68